Time;durP1;ratioP1;P1;durP2;ratioP2;P2;SDS_P1;SDS_P2;PMS_P1;PMS_P2;Temp;Humidity;BMP_temperature;BMP_pressure;BME280_temperature;BME280_humidity;BME280_pressure;Samples;Min_cycle;Max_cycle;Signal;HPM_P1;HPM_P2
2022/11/21 00:01:15;;;;;;;4.87;0.90;;;;;2.40;93153.00;;;;7399117;19;20544;-77
2022/11/21 00:03:49;;;;;;;5.80;1.07;;;;;2.50;93154.00;;;;7397783;19;20155;-77
2022/11/21 00:06:17;;;;;;;1.70;0.70;;;;;2.50;93153.00;;;;7398626;19;20580;-77
2022/11/21 00:08:45;;;;;;;4.23;1.10;;;;;2.70;93157.00;;;;7398381;19;20504;-77
2022/11/21 00:11:20;;;;;;;3.23;1.37;;;;;2.60;93139.00;;;;7398066;19;20144;-77
2022/11/21 00:13:56;;;;;;;11.93;1.83;;;;;2.70;93144.00;;;;7397208;19;20523;-77
2022/11/21 00:16:30;;;;;;;9.67;1.90;;;;;2.70;93133.00;;;;7398589;19;20472;-78
2022/11/21 00:19:00;;;;;;;7.07;1.30;;;;;2.80;93139.00;;;;7398355;19;20429;-77
2022/11/21 00:21:28;;;;;;;14.83;2.50;;;;;2.90;93131.00;;;;7397905;19;20145;-76
2022/11/21 00:24:04;;;;;;;7.10;2.03;;;;;2.80;93115.00;;;;7396830;19;20136;-77
2022/11/21 00:26:32;;;;;;;13.90;2.30;;;;;3.00;93119.00;;;;7395335;19;20217;-77
2022/11/21 00:28:59;;;;;;;8.37;1.90;;;;;2.70;93118.00;;;;7397984;19;20148;-77
2022/11/21 00:31:33;;;;;;;7.20;1.83;;;;;2.80;93113.00;;;;7395710;19;20155;-77
2022/11/21 00:34:01;;;;;;;7.40;2.17;;;;;2.90;93107.00;;;;7398110;19;20595;-77
2022/11/21 00:36:28;;;;;;;7.27;1.90;;;;;2.90;93101.00;;;;7398079;19;20153;-77
2022/11/21 00:39:02;;;;;;;6.67;1.63;;;;;2.70;93109.00;;;;7400540;19;20133;-76
2022/11/21 00:41:30;;;;;;;9.53;1.93;;;;;2.90;93100.00;;;;7397229;19;20472;-76
2022/11/21 00:43:57;;;;;;;5.00;1.70;;;;;2.80;93095.00;;;;7397400;19;20133;-76
2022/11/21 00:46:33;;;;;;;8.00;2.20;;;;;3.00;93102.00;;;;7395593;19;20143;-77
2022/11/21 00:49:01;;;;;;;11.10;1.73;;;;;3.10;93109.00;;;;7398786;19;20133;-76
2022/11/21 00:51:29;;;;;;;8.00;2.23;;;;;3.10;93109.00;;;;7396984;19;20137;-77
2022/11/21 00:54:04;;;;;;;14.97;2.00;;;;;3.10;93122.00;;;;7397948;19;20183;-76
2022/11/21 00:56:32;;;;;;;10.40;2.23;;;;;3.10;93110.00;;;;7396603;19;20213;-77
2022/11/21 00:59:02;;;;;;;5.70;1.80;;;;;3.00;93115.00;;;;7397191;19;20145;-76
2022/11/21 01:01:38;;;;;;;7.43;1.63;;;;;3.10;93126.00;;;;7398414;19;20132;-76
2022/11/21 01:04:06;;;;;;;7.60;1.70;;;;;2.90;93118.00;;;;7396466;19;20149;-75
2022/11/21 01:06:36;;;;;;;7.40;1.60;;;;;2.70;93115.00;;;;7396501;19;20193;-75
2022/11/21 01:09:09;;;;;;;1.80;1.00;;;;;2.50;93104.00;;;;7396737;19;20505;-76
2022/11/21 01:11:38;;;;;;;3.07;1.00;;;;;2.30;93104.00;;;;7395449;19;20145;-75
2022/11/21 01:14:06;;;;;;;3.70;0.70;;;;;2.20;93099.00;;;;7394825;19;20653;-77
2022/11/21 01:16:46;;;;;;;1.37;0.60;;;;;1.90;93107.00;;;;7397190;19;20141;-77
2022/11/21 01:19:13;;;;;;;2.20;0.80;;;;;1.90;93104.00;;;;7396148;19;20129;-77
2022/11/21 01:21:47;;;;;;;3.03;0.63;;;;;1.70;93098.00;;;;7396788;19;20483;-77
2022/11/21 01:24:15;;;;;;;1.80;0.63;;;;;1.90;93100.00;;;;7400160;19;20542;-77
2022/11/21 01:26:42;;;;;;;1.10;0.57;;;;;2.00;93106.00;;;;7402916;19;20125;-77
2022/11/21 01:29:17;;;;;;;3.83;0.63;;;;;2.00;93096.00;;;;7402677;19;20471;-77
2022/11/21 01:31:44;;;;;;;1.30;0.80;;;;;1.80;93105.00;;;;7402123;19;20136;-77
2022/11/21 01:34:13;;;;;;;1.77;0.70;;;;;1.80;93089.00;;;;7403214;19;20141;-76
2022/11/21 01:36:48;;;;;;;1.63;0.60;;;;;1.70;93092.00;;;;7402314;19;20152;-77
2022/11/21 01:39:15;;;;;;;2.97;0.70;;;;;1.60;93082.00;;;;7403785;19;20153;-77
2022/11/21 01:41:44;;;;;;;1.13;0.53;;;;;1.60;93082.00;;;;7401377;19;20141;-76
2022/11/21 01:44:44;;;;;;;3.03;1.13;;;;;1.70;93078.00;;;;7403572;19;20149;-77
2022/11/21 01:47:12;;;;;;;2.47;0.80;;;;;1.60;93089.00;;;;7403711;19;20607;-77
2022/11/21 01:49:46;;;;;;;1.83;0.77;;;;;1.50;93088.00;;;;7403000;19;20132;-77
2022/11/21 01:52:28;;;;;;;0.63;0.60;;;;;1.50;93079.00;;;;7404592;19;20125;-77
2022/11/21 01:55:07;;;;;;;1.37;0.53;;;;;1.50;93075.00;;;;7404752;19;20133;-77
2022/11/21 01:57:47;;;;;;;1.47;0.70;;;;;1.50;93084.00;;;;7401308;19;20161;-77
2022/11/21 02:00:26;;;;;;;1.30;0.60;;;;;1.60;93085.00;;;;7402156;19;20156;-77
2022/11/21 02:03:01;;;;;;;0.57;0.53;;;;;1.60;93079.00;;;;7402451;19;20156;-76
2022/11/21 02:05:36;;;;;;;0.33;0.33;;;;;1.50;93086.00;;;;7401478;19;20146;-75
2022/11/21 02:08:12;;;;;;;0.37;0.27;;;;;1.40;93078.00;;;;7403294;19;20136;-76
2022/11/21 02:11:12;;;;;;;0.80;0.30;;;;;1.60;93070.00;;;;7403593;19;20128;-77
2022/11/21 02:13:40;;;;;;;1.30;0.40;;;;;1.60;93065.00;;;;7401817;19;20157;-77
2022/11/21 02:16:21;;;;;;;0.97;0.30;;;;;1.50;93066.00;;;;7401059;19;20201;-76
2022/11/21 02:18:48;;;;;;;0.90;0.40;;;;;1.50;93066.00;;;;7402679;19;20587;-77
2022/11/21 02:21:38;;;;;;;0.97;0.20;;;;;1.70;93054.00;;;;7401249;19;20162;-77
2022/11/21 02:24:21;;;;;;;1.10;0.30;;;;;1.70;93058.00;;;;7403266;19;20133;-76
2022/11/21 02:26:58;;;;;;;0.37;0.20;;;;;1.80;93052.00;;;;7400124;19;20143;-76
2022/11/21 02:29:26;;;;;;;0.63;0.23;;;;;1.90;93056.00;;;;7401195;19;20121;-77
2022/11/21 02:31:53;;;;;;;0.90;0.27;;;;;2.00;93050.00;;;;7401961;19;20137;-77
2022/11/21 02:34:28;;;;;;;0.80;0.40;;;;;2.10;93046.00;;;;7400555;19;20124;-76
2022/11/21 02:36:57;;;;;;;0.40;0.40;;;;;2.10;93059.00;;;;7399734;19;20174;-77
2022/11/21 02:39:35;;;;;;;0.97;0.40;;;;;2.20;93059.00;;;;7401727;19;20212;-76
2022/11/21 02:42:27;;;;;;;0.30;0.30;;;;;2.20;93049.00;;;;7399422;19;20129;-76
2022/11/21 02:45:24;;;;;;;0.73;0.50;;;;;2.20;93053.00;;;;7399618;19;20146;-77
2022/11/21 02:47:59;;;;;;;1.13;0.70;;;;;2.30;93039.00;;;;7402223;19;20129;-76
2022/11/21 02:50:38;;;;;;;0.90;0.50;;;;;2.30;93043.00;;;;7399316;19;20440;-75
2022/11/21 02:53:18;;;;;;;2.73;0.80;;;;;2.40;93036.00;;;;7400618;19;20192;-75
2022/11/21 02:55:45;;;;;;;0.50;0.50;;;;;2.30;93036.00;;;;7400893;19;20212;-75
2022/11/21 02:58:22;;;;;;;1.13;0.73;;;;;2.50;93035.00;;;;7396671;19;20140;-75
2022/11/21 03:00:53;;;;;;;1.00;0.60;;;;;2.60;93030.00;;;;7398775;19;20133;-75
2022/11/21 03:03:28;;;;;;;0.60;0.50;;;;;2.60;93028.00;;;;7402308;19;20152;-75
2022/11/21 03:05:55;;;;;;;3.60;0.80;;;;;2.80;93020.00;;;;7396206;19;20159;-75
2022/11/21 03:08:23;;;;;;;1.50;0.70;;;;;2.80;93018.00;;;;7398895;19;20144;-76
2022/11/21 03:10:57;;;;;;;4.07;0.90;;;;;2.90;93033.00;;;;7401587;19;20128;-76
2022/11/21 03:13:25;;;;;;;1.00;0.77;;;;;2.70;93016.00;;;;7400225;19;20168;-74
2022/11/21 03:15:54;;;;;;;1.73;0.70;;;;;2.80;93024.00;;;;7396233;19;20174;-76
2022/11/21 03:18:27;;;;;;;3.43;0.60;;;;;2.80;93018.00;;;;7401883;19;20211;-75
2022/11/21 03:20:57;;;;;;;5.33;1.37;;;;;2.90;93024.00;;;;7400822;19;20164;-75
2022/11/21 03:23:24;;;;;;;1.33;0.80;;;;;2.90;93027.00;;;;7397292;19;20155;-75
2022/11/21 03:25:59;;;;;;;1.50;1.20;;;;;3.00;93029.00;;;;7398747;19;20531;-76
2022/11/21 03:28:26;;;;;;;3.00;0.90;;;;;3.00;93023.00;;;;7400451;19;20502;-76
2022/11/21 03:30:54;;;;;;;1.37;1.10;;;;;3.00;93015.00;;;;7399674;19;20144;-76
2022/11/21 03:33:28;;;;;;;2.47;1.07;;;;;3.00;93013.00;;;;7399526;19;20490;-76
2022/11/21 03:35:56;;;;;;;3.10;1.40;;;;;3.10;93012.00;;;;7399582;19;20611;-76
2022/11/21 03:38:24;;;;;;;3.27;1.30;;;;;3.10;93014.00;;;;7396768;19;20161;-76
2022/11/21 03:41:01;;;;;;;3.63;1.43;;;;;3.00;93002.00;;;;7400116;19;20149;-76
2022/11/21 03:43:30;;;;;;;3.47;1.13;;;;;3.10;93015.00;;;;7400789;19;20129;-76
2022/11/21 03:45:58;;;;;;;4.70;1.13;;;;;3.00;93017.00;;;;7399069;19;20543;-75
2022/11/21 03:48:32;;;;;;;4.70;1.10;;;;;3.10;93007.00;;;;7394453;19;20463;-76
2022/11/21 03:51:01;;;;;;;2.93;1.30;;;;;3.10;93014.00;;;;7395400;19;20592;-76
2022/11/21 03:53:28;;;;;;;2.47;1.17;;;;;3.30;93013.00;;;;7397792;19;20125;-76
2022/11/21 03:56:04;;;;;;;5.60;1.40;;;;;3.10;93014.00;;;;7400727;19;20149;-76
2022/11/21 03:58:31;;;;;;;3.73;1.07;;;;;3.10;93005.00;;;;7399669;19;20156;-76
2022/11/21 04:00:59;;;;;;;4.53;1.33;;;;;3.30;93007.00;;;;7394969;19;20627;-76
2022/11/21 04:03:34;;;;;;;3.47;1.50;;;;;3.20;93001.00;;;;7398816;19;20140;-76
2022/11/21 04:06:02;;;;;;;3.70;1.60;;;;;3.40;93008.00;;;;7397768;19;20212;-76
2022/11/21 04:08:30;;;;;;;2.07;1.50;;;;;3.20;93004.00;;;;7400120;19;20128;-76
2022/11/21 04:11:06;;;;;;;4.07;2.20;;;;;3.30;93012.00;;;;7397162;19;20140;-75
2022/11/21 04:13:39;;;;;;;6.87;1.90;;;;;3.20;93009.00;;;;7397368;19;20148;-76
2022/11/21 04:16:20;;;;;;;6.13;2.10;;;;;3.20;93018.00;;;;7398468;19;20156;-76
2022/11/21 04:18:50;;;;;;;3.43;1.80;;;;;3.20;93007.00;;;;7399723;19;20132;-75
2022/11/21 04:21:23;;;;;;;5.83;2.03;;;;;3.20;93014.00;;;;7397041;19;20141;-75
2022/11/21 04:23:51;;;;;;;4.40;2.53;;;;;3.10;93012.00;;;;7398458;19;20476;-76
2022/11/21 04:26:18;;;;;;;7.47;1.93;;;;;3.30;93011.00;;;;7396501;19;20133;-75
2022/11/21 04:28:52;;;;;;;4.30;1.87;;;;;3.20;93004.00;;;;7397910;19;20157;-75
2022/11/21 04:31:29;;;;;;;6.90;1.90;;;;;3.10;93001.00;;;;7397928;19;20216;-75
2022/11/21 04:34:03;;;;;;;5.57;2.00;;;;;3.00;93012.00;;;;7395153;19;20152;-76
2022/11/21 04:36:30;;;;;;;6.10;2.13;;;;;3.00;93022.00;;;;7397453;19;20536;-75
2022/11/21 04:38:58;;;;;;;4.60;1.90;;;;;3.10;93017.00;;;;7397404;19;20474;-75
2022/11/21 04:41:33;;;;;;;7.03;2.47;;;;;3.30;93019.00;;;;7398235;19;20518;-74
2022/11/21 04:44:04;;;;;;;8.07;2.47;;;;;3.00;93023.00;;;;7398651;19;20188;-75
2022/11/21 04:46:41;;;;;;;6.13;2.07;;;;;2.90;93010.00;;;;7396179;19;20176;-75
2022/11/21 04:49:10;;;;;;;3.83;1.77;;;;;2.90;93017.00;;;;7396917;19;20181;-76
2022/11/21 04:51:40;;;;;;;9.27;2.10;;;;;2.80;93017.00;;;;7397660;19;20206;-75
2022/11/21 04:54:15;;;;;;;3.67;2.00;;;;;2.80;93018.00;;;;7396155;19;20172;-76
2022/11/21 04:56:43;;;;;;;5.70;2.27;;;;;3.00;93020.00;;;;7396769;19;20135;-75
2022/11/21 04:59:11;;;;;;;9.37;2.73;;;;;3.00;93033.00;;;;7400105;19;20208;-75
2022/11/21 05:01:47;;;;;;;7.03;2.40;;;;;3.00;93037.00;;;;7399909;19;20176;-77
2022/11/21 05:04:15;;;;;;;4.03;2.03;;;;;2.50;93030.00;;;;7402069;19;20167;-77
2022/11/21 05:06:42;;;;;;;3.60;1.63;;;;;2.30;93040.00;;;;7400541;19;20157;-77
2022/11/21 05:09:16;;;;;;;2.60;1.10;;;;;2.20;93032.00;;;;7402243;19;20220;-76
2022/11/21 05:14:50;;;;;;;3.23;1.83;;;;;2.00;93032.00;;;;7395880;19;20186;-76
2022/11/21 05:17:26;;;;;;;2.33;1.20;;;;;2.00;93017.00;;;;7403286;19;20616;-76
2022/11/21 05:19:59;;;;;;;2.90;1.50;;;;;2.30;93019.00;;;;7403077;19;20140;-75
2022/11/21 05:22:27;;;;;;;4.47;1.83;;;;;2.50;93019.00;;;;7403564;19;20210;-76
2022/11/21 05:24:54;;;;;;;3.50;1.63;;;;;2.40;93022.00;;;;7401297;19;20208;-77
2022/11/21 05:27:28;;;;;;;9.40;2.10;;;;;2.40;93018.00;;;;7400135;19;20131;-75
2022/11/21 05:29:56;;;;;;;4.87;2.13;;;;;2.60;93030.00;;;;7403017;19;20583;-76
2022/11/21 05:32:27;;;;;;;7.60;1.83;;;;;2.50;93027.00;;;;7401981;19;20471;-74
2022/11/21 05:35:00;;;;;;;6.77;2.00;;;;;2.40;93025.00;;;;7403402;19;20152;-74
2022/11/21 05:37:28;;;;;;;3.57;1.90;;;;;2.50;93013.00;;;;7405039;19;20121;-75
2022/11/21 05:39:55;;;;;;;9.73;2.50;;;;;2.50;93008.00;;;;7401922;19;20168;-75
2022/11/21 05:45:16;;;;;;;10.70;2.53;;;;;2.50;93015.00;;;;7402979;19;20141;-77
2022/11/21 05:47:50;;;;;;;9.50;3.20;;;;;2.70;93012.00;;;;7402203;19;20148;-76
2022/11/21 05:50:17;;;;;;;4.43;2.50;;;;;2.60;93014.00;;;;7404618;19;20192;-76
2022/11/21 05:52:45;;;;;;;12.00;2.80;;;;;2.60;93005.00;;;;7403021;19;20173;-77
2022/11/21 05:55:18;;;;;;;8.73;2.67;;;;;2.60;93024.00;;;;7404783;19;20611;-76
2022/11/21 05:57:46;;;;;;;9.30;2.80;;;;;2.70;93017.00;;;;7401975;19;20132;-76
2022/11/21 06:00:14;;;;;;;11.60;3.17;;;;;2.70;93018.00;;;;7402478;19;20460;-76
2022/11/21 06:05:33;;;;;;;8.67;3.07;;;;;2.80;93017.00;;;;7403686;19;20125;-76
2022/11/21 06:08:07;;;;;;;9.90;3.33;;;;;2.80;93014.00;;;;7400013;19;20633;-76
2022/11/21 06:10:35;;;;;;;10.17;3.17;;;;;2.80;93013.00;;;;7400408;19;20147;-77
2022/11/21 06:13:20;;;;;;;9.53;3.00;;;;;2.70;93008.00;;;;7401824;19;20208;-77
2022/11/21 06:16:04;;;;;;;15.43;2.97;;;;;2.80;93016.00;;;;7400301;19;20614;-76
2022/11/21 06:18:34;;;;;;;6.60;2.80;;;;;2.70;93013.00;;;;7401472;19;20125;-77
2022/11/21 06:21:15;;;;;;;5.50;2.50;;;;;2.70;93023.00;;;;7403147;19;20596;-77
2022/11/21 06:23:43;;;;;;;9.47;2.90;;;;;2.70;93013.00;;;;7403491;19;20604;-76
2022/11/21 06:26:20;;;;;;;5.10;2.30;;;;;2.70;93021.00;;;;7402530;19;20129;-76
2022/11/21 06:28:48;;;;;;;5.03;2.37;;;;;2.70;93015.00;;;;7401869;19;20615;-75
2022/11/21 06:31:21;;;;;;;8.87;2.57;;;;;2.70;93014.00;;;;7400465;19;20599;-76
2022/11/21 06:33:57;;;;;;;9.30;2.63;;;;;2.60;93014.00;;;;7401964;19;20128;-76
2022/11/21 06:36:25;;;;;;;11.93;2.60;;;;;2.40;93011.00;;;;7401522;19;20121;-75
2022/11/21 06:38:54;;;;;;;7.47;2.40;;;;;2.40;93007.00;;;;7400795;19;20150;-76
2022/11/21 06:41:31;;;;;;;7.07;2.40;;;;;2.40;93003.00;;;;7400618;19;20120;-76
2022/11/21 06:44:00;;;;;;;7.07;2.50;;;;;2.40;93022.00;;;;7402996;19;20618;-75
2022/11/21 06:46:34;;;;;;;11.33;2.57;;;;;2.50;93005.00;;;;7400520;19;20132;-75
2022/11/21 06:49:02;;;;;;;11.10;3.03;;;;;2.60;93002.00;;;;7401757;19;20170;-76
2022/11/21 06:51:30;;;;;;;7.37;2.83;;;;;2.50;93007.00;;;;7401969;19;20135;-75
2022/11/21 06:54:05;;;;;;;10.73;2.80;;;;;2.60;93022.00;;;;7400453;19;20139;-76
2022/11/21 06:56:33;;;;;;;10.80;2.60;;;;;2.70;93027.00;;;;7401060;19;20145;-76
2022/11/21 06:59:01;;;;;;;8.97;2.90;;;;;2.60;93039.00;;;;7400947;19;20132;-76
2022/11/21 07:01:35;;;;;;;7.57;2.80;;;;;2.80;93033.00;;;;7401400;19;20599;-75
2022/11/21 07:04:03;;;;;;;10.70;2.13;;;;;2.90;93036.00;;;;7399379;19;20165;-75
2022/11/21 07:06:32;;;;;;;5.47;2.40;;;;;2.90;93030.00;;;;7401573;19;20125;-76
2022/11/21 07:09:07;;;;;;;9.97;2.60;;;;;3.00;93033.00;;;;7399540;19;20149;-75
2022/11/21 07:11:54;;;;;;;6.70;1.93;;;;;2.90;93035.00;;;;7400126;19;20829;-75
2022/11/21 07:14:35;;;;;;;9.77;2.23;;;;;2.80;93028.00;;;;7398672;19;20240;-74
2022/11/21 07:17:02;;;;;;;3.97;1.70;;;;;2.80;93042.00;;;;7399602;19;20146;-75
2022/11/21 07:19:37;;;;;;;13.47;2.17;;;;;3.00;93035.00;;;;7398494;19;20145;-74
2022/11/21 07:22:07;;;;;;;3.83;2.20;;;;;3.20;93028.00;;;;7399117;19;20125;-75
2022/11/21 07:24:36;;;;;;;3.63;1.90;;;;;3.10;93030.00;;;;7399913;19;20144;-76
2022/11/21 07:27:09;;;;;;;6.87;2.20;;;;;3.00;93036.00;;;;7399687;19;20139;-76
2022/11/21 07:29:37;;;;;;;5.20;1.90;;;;;3.20;93018.00;;;;7400319;19;20614;-74
2022/11/21 07:32:04;;;;;;;5.77;2.10;;;;;3.00;93037.00;;;;7399870;19;20662;-74
2022/11/21 07:34:39;;;;;;;4.20;1.63;;;;;2.90;93030.00;;;;7397978;19;20132;-76
2022/11/21 07:37:08;;;;;;;10.60;1.70;;;;;2.90;93034.00;;;;7399932;19;20153;-76
2022/11/21 07:39:35;;;;;;;7.20;2.17;;;;;2.90;93026.00;;;;7399202;19;20150;-75
2022/11/21 07:42:12;;;;;;;6.23;2.03;;;;;2.90;93021.00;;;;7397982;19;20220;-75
2022/11/21 07:44:42;;;;;;;4.77;1.50;;;;;2.90;93029.00;;;;7396420;19;20141;-76
2022/11/21 07:47:09;;;;;;;7.07;1.90;;;;;2.90;93027.00;;;;7399495;19;20148;-75
2022/11/21 07:49:43;;;;;;;11.43;1.73;;;;;3.30;93029.00;;;;7399081;19;20120;-76
2022/11/21 07:52:11;;;;;;;8.73;1.90;;;;;3.30;93031.00;;;;7398344;19;20144;-75
2022/11/21 07:54:38;;;;;;;7.90;1.70;;;;;3.40;93032.00;;;;7398594;19;20590;-74
2022/11/21 07:57:12;;;;;;;5.73;1.70;;;;;3.60;93026.00;;;;7398874;19;20136;-76
2022/11/21 07:59:43;;;;;;;4.83;1.90;;;;;3.50;93020.00;;;;7397426;19;20159;-75
2022/11/21 08:02:27;;;;;;;4.10;1.60;;;;;3.70;93034.00;;;;7398264;19;20201;-74
2022/11/21 08:05:01;;;;;;;6.77;2.23;;;;;4.30;93019.00;;;;7398021;19;20133;-74
2022/11/21 08:07:31;;;;;;;9.63;1.57;;;;;4.40;93012.00;;;;7394694;19;20157;-75
2022/11/21 08:10:00;;;;;;;8.97;1.77;;;;;4.80;93024.00;;;;7396936;19;20144;-74
2022/11/21 08:12:33;;;;;;;11.00;1.80;;;;;4.80;93015.00;;;;7398024;19;20128;-74
2022/11/21 08:15:07;;;;;;;7.00;1.50;;;;;4.70;93014.00;;;;7396933;19;20176;-74
2022/11/21 08:17:43;;;;;;;6.20;1.70;;;;;4.90;93014.00;;;;7396690;19;20608;-74
2022/11/21 08:20:12;;;;;;;6.40;1.53;;;;;4.90;93012.00;;;;7398308;19;20129;-75
2022/11/21 08:22:41;;;;;;;6.80;1.53;;;;;5.30;93008.00;;;;7396785;19;20623;-76
2022/11/21 08:25:14;;;;;;;7.10;1.40;;;;;5.90;93005.00;;;;7397541;19;20148;-75
2022/11/21 08:27:42;;;;;;;6.47;1.50;;;;;5.90;93003.00;;;;7397959;19;20595;-75
2022/11/21 08:30:11;;;;;;;2.27;1.13;;;;;6.70;92995.00;;;;7396709;19;20125;-76
2022/11/21 08:32:47;;;;;;;4.53;1.30;;;;;7.20;92998.00;;;;7394633;19;20496;-77
2022/11/21 08:35:14;;;;;;;8.60;1.87;;;;;6.60;93001.00;;;;7397157;19;20149;-76
2022/11/21 08:37:42;;;;;;;2.83;1.03;;;;;7.10;92998.00;;;;7397150;19;20201;-76
2022/11/21 08:40:15;;;;;;;4.47;1.30;;;;;7.20;92997.00;;;;7395265;19;20139;-77
2022/11/21 08:42:43;;;;;;;4.10;1.20;;;;;7.60;93001.00;;;;7397555;19;20132;-76
2022/11/21 08:45:10;;;;;;;3.50;1.40;;;;;7.40;92995.00;;;;7397867;19;20125;-76
2022/11/21 08:47:45;;;;;;;4.00;1.60;;;;;7.50;92998.00;;;;7396779;19;20128;-76
2022/11/21 08:50:12;;;;;;;4.50;1.60;;;;;7.10;93000.00;;;;7397841;19;20584;-76
2022/11/21 08:52:40;;;;;;;5.13;1.40;;;;;7.80;92992.00;;;;7397420;19;20135;-77
2022/11/21 08:55:13;;;;;;;6.17;1.50;;;7.00;99.90;8.40;92983.00;;;;7397955;19;20129;-75
2022/11/21 08:57:42;;;;;;;6.10;1.43;;;7.10;46.90;7.80;92988.00;;;;7395711;19;20133;-76
2022/11/21 09:00:14;;;;;;;5.87;1.40;;;6.80;1.00;7.10;92981.00;;;;7395759;19;20148;-75
2022/11/21 09:02:47;;;;;;;3.73;1.37;;;6.50;1.00;6.70;92985.00;;;;7395664;19;20168;-75
2022/11/21 09:05:14;;;;;;;8.13;1.53;;;5.80;1.00;7.20;92976.00;;;;7396015;19;20164;-74
2022/11/21 09:07:41;;;;;;;5.40;1.10;;;5.90;1.00;8.00;92974.00;;;;7393417;19;20153;-75
2022/11/21 09:10:15;;;;;;;4.17;1.90;;;6.30;45.50;8.10;92979.00;;;;7393992;19;20145;-74
2022/11/21 09:12:42;;;;;;;3.47;1.00;;;6.70;99.90;7.60;92962.00;;;;7394612;19;20121;-74
2022/11/21 09:18:11;;;;;;;5.30;1.30;;;5.90;99.90;7.20;92969.00;;;;7394941;19;20148;-74
2022/11/21 09:20:41;;;;;;;5.23;1.57;;;5.90;1.00;8.10;92987.00;;;;7393945;19;20152;-74
2022/11/21 09:23:16;;;;;;;4.03;1.83;;;6.30;99.90;7.70;92961.00;;;;7394606;19;20142;-74
2022/11/21 09:25:44;;;;;;;5.50;1.37;;;6.20;99.90;8.20;92969.00;;;;7395307;19;20549;-75
2022/11/21 09:28:14;;;;;;;5.67;1.33;;;6.50;79.30;7.40;92988.00;;;;7394088;19;20148;-75
2022/11/21 09:30:47;;;;;;;8.37;1.53;;;6.60;1.00;7.00;92986.00;;;;7396750;19;20588;-75
2022/11/21 09:33:18;;;;;;;4.20;1.40;;;6.40;1.00;7.40;92981.00;;;;7395480;19;20125;-74
2022/11/21 09:35:45;;;;;;;4.90;1.40;;;6.40;1.00;8.10;92958.00;;;;7396982;19;20121;-74
2022/11/21 09:38:18;;;;;;;9.32;1.42;;;6.90;99.90;8.80;92957.00;;;;7393258;19;20484;-74
2022/11/21 09:40:50;;;;;;;5.28;1.50;;;7.30;99.90;9.10;92961.00;;;;7393269;19;20125;-74
2022/11/21 09:43:58;;;;;;;5.95;1.17;;;7.70;99.90;9.70;92948.00;;;;7395243;19;20133;-74
2022/11/21 09:46:44;;;;;;;8.25;1.38;;;7.70;36.40;9.90;92973.00;;;;7401339;19;20121;-75
2022/11/21 09:49:14;;;;;;;4.75;1.45;;;8.00;1.00;9.30;92955.00;;;;7400865;19;20117;-75
2022/11/21 09:51:51;;;;;;;7.40;1.40;;;7.90;1.00;10.00;92932.00;;;;7402933;19;20480;-75
2022/11/21 09:54:29;;;;;;;4.80;1.00;;;8.10;1.00;10.50;92948.00;;;;7402042;19;20137;-74
2022/11/21 09:57:02;;;;;;;5.15;1.13;;;8.40;1.00;10.70;92954.00;;;;7403888;19;20504;-77
2022/11/21 09:59:38;;;;;;;5.20;1.20;;;8.80;1.00;10.40;92936.00;;;;7400364;19;20142;-76
2022/11/21 10:02:23;;;;;;;4.97;1.25;;;8.80;1.00;10.40;92923.00;;;;7402825;19;20136;-76
2022/11/21 10:04:51;;;;;;;5.65;1.60;;;8.70;1.00;10.60;92930.00;;;;7403049;19;20502;-76
2022/11/21 10:07:33;;;;;;;3.78;1.10;;;9.00;1.00;9.90;92919.00;;;;7401518;19;20144;-77
2022/11/21 10:10:25;;;;;;;8.50;1.55;;;8.90;1.00;9.30;92943.00;;;;7402310;19;20125;-75
2022/11/21 10:13:30;;;;;;;7.90;2.08;;;8.40;1.00;8.70;92930.00;;;;7400673;19;20141;-75
2022/11/21 10:16:48;;;;;;;6.80;1.70;;;7.80;1.00;7.90;92938.00;;;;7401863;19;20160;-76
2022/11/21 10:19:58;;;;;;;5.57;1.33;;;7.40;1.00;7.40;92928.00;;;;7401314;19;20169;-76
2022/11/21 10:22:56;;;;;;;7.97;1.30;;;6.60;1.00;7.20;92944.00;;;;7401351;19;20161;-76
2022/11/21 10:25:39;;;;;;;6.90;1.42;;;6.30;1.00;7.40;92923.00;;;;7402733;19;20156;-77
2022/11/21 10:28:26;;;;;;;4.07;1.40;;;6.10;1.00;7.50;92925.00;;;;7399238;19;20164;-75
2022/11/21 10:31:02;;;;;;;4.77;1.60;;;6.10;1.00;7.90;92899.00;;;;7400548;19;20160;-76
2022/11/21 10:33:33;;;;;;;6.85;1.25;;;6.20;1.00;9.10;92905.00;;;;7401869;19;20716;-76
2022/11/21 10:36:09;;;;;;;3.53;1.40;;;6.70;1.00;9.60;92885.00;;;;7401034;19;20129;-77
2022/11/21 10:38:44;;;;;;;3.67;1.15;;;7.20;1.00;10.10;92878.00;;;;7401168;19;20117;-74
2022/11/21 10:41:38;;;;;;;6.72;1.70;;;7.80;1.00;11.00;92881.00;;;;7398815;19;20149;-75
2022/11/21 10:47:30;;;;;;;5.20;1.50;;;8.20;99.90;10.40;92875.00;;;;7399386;19;20154;-74
2022/11/21 10:50:32;;;;;;;5.70;1.05;;;8.40;99.90;9.90;92865.00;;;;7399860;19;20545;-73
2022/11/21 10:56:20;;;;;;;1.67;1.13;;;8.30;99.90;10.40;92868.00;;;;7398810;19;20565;-73
2022/11/21 10:58:55;;;;;;;5.80;1.60;;;8.50;99.90;9.90;92847.00;;;;7398864;19;20620;-74
2022/11/21 11:01:34;;;;;;;3.63;1.27;;;8.40;99.90;10.00;92860.00;;;;7401001;19;20136;-73
2022/11/21 11:04:10;;;;;;;4.72;1.40;;;8.20;99.90;9.10;92853.00;;;;7399610;19;20137;-76
2022/11/21 11:07:20;;;;;;;3.28;1.13;;;7.80;99.90;9.30;92848.00;;;;7400472;19;20119;-73
2022/11/21 11:09:51;;;;;;;3.13;1.20;;;7.50;99.90;9.50;92843.00;;;;7398953;19;20132;-73
2022/11/21 11:15:25;;;;;;;6.63;1.33;;;7.40;99.90;9.50;92817.00;;;;7398054;19;20168;-76
2022/11/21 11:18:09;;;;;;;3.25;1.20;;;7.40;99.90;9.40;92821.00;;;;7399002;19;20172;-75
2022/11/21 11:20:43;;;;;;;4.47;1.42;;;7.50;99.90;9.80;92830.00;;;;7398803;19;20162;-75
2022/11/21 11:23:23;;;;;;;5.28;1.40;;;7.70;99.90;10.20;92820.00;;;;7399676;19;20163;-74
2022/11/21 11:25:54;;;;;;;2.90;1.17;;;7.90;99.90;10.10;92814.00;;;;7398666;19;20128;-74
2022/11/21 11:28:35;;;;;;;3.67;1.40;;;8.20;99.90;10.70;92803.00;;;;7397500;19;20132;-74
2022/11/21 11:31:02;;;;;;;5.88;1.40;;;8.50;99.90;10.90;92800.00;;;;7400914;19;20584;-74
2022/11/21 11:33:50;;;;;;;2.45;1.10;;;8.80;99.90;10.60;92800.00;;;;7399529;19;20136;-74
2022/11/21 11:36:54;;;;;;;3.70;1.45;;;8.90;99.90;10.90;92776.00;;;;7400265;19;20124;-74
2022/11/21 11:40:06;;;;;;;4.38;1.38;;;9.20;99.90;11.70;92776.00;;;;7397682;19;20579;-74
2022/11/21 11:48:55;;;;;;;3.40;1.38;;;9.80;99.90;11.10;92764.00;;;;7395875;19;20216;-74
2022/11/21 11:51:59;;;;;;;3.45;1.20;;;9.80;99.90;11.40;92770.00;;;;7397559;19;20216;-74
2022/11/21 11:54:45;;;;;;;3.78;1.30;;;9.90;99.90;11.30;92757.00;;;;7399288;19;20152;-74
2022/11/21 11:57:19;;;;;;;3.85;1.50;;;10.20;99.90;11.10;92760.00;;;;7398143;19;20148;-74
2022/11/21 12:00:13;;;;;;;7.22;1.50;;;9.90;99.90;11.00;92763.00;;;;7398524;19;20129;-74
2022/11/21 12:03:17;;;;;;;3.90;1.23;;;10.10;99.90;11.70;92758.00;;;;7399268;19;20149;-74
2022/11/21 12:05:56;;;;;;;4.53;1.10;;;10.10;99.90;10.40;92772.00;;;;7397940;19;20159;-74
2022/11/21 12:09:14;;;;;;;4.95;1.55;;;9.70;99.90;8.80;92776.00;;;;7396112;19;20146;-74
2022/11/21 12:12:22;;;;;;;3.58;1.33;;;8.80;99.90;8.50;92751.00;;;;7398526;19;20583;-73
2022/11/21 12:18:14;;;;;;;3.20;1.10;;;8.20;99.90;11.40;92765.00;;;;7398547;19;20205;-74
2022/11/21 12:20:50;;;;;;;2.65;1.15;;;8.60;99.90;11.00;92741.00;;;;7397255;19;20152;-74
2022/11/21 12:23:18;;;;;;;7.60;1.35;;;8.60;99.90;11.00;92738.00;;;;7398505;19;20503;-74
2022/11/21 12:26:19;;;;;;;5.20;1.52;;;8.80;99.90;11.10;92736.00;;;;7396379;19;20161;-74
2022/11/21 12:29:20;;;;;;;5.40;1.50;;;8.90;99.90;9.70;92726.00;;;;7395732;19;20139;-74
2022/11/21 12:32:18;;;;;;;4.82;1.30;;;8.80;99.90;9.30;92738.00;;;;7398457;19;20129;-74
2022/11/21 12:35:06;;;;;;;5.32;1.40;;;8.50;99.90;8.20;92725.00;;;;7395995;19;20153;-74
2022/11/21 12:38:08;;;;;;;5.15;1.33;;;8.00;99.90;8.10;92723.00;;;;7397957;19;20124;-74
2022/11/21 12:44:32;;;;;;;4.13;1.60;;;7.00;99.90;7.10;92727.00;;;;7396733;19;20683;-73
2022/11/21 12:47:11;;;;;;;4.93;1.20;;;6.70;99.90;7.00;92713.00;;;;7397943;19;20136;-74
2022/11/21 12:56:40;;;;;;;7.43;1.27;;;6.60;99.90;8.20;92675.00;;;;7396337;19;20137;-75
2022/11/21 12:59:14;;;;;;;4.70;1.60;;;6.80;99.90;9.10;92699.00;;;;7396037;19;20154;-74
2022/11/21 13:02:23;;;;;;;5.93;1.40;;;7.30;99.90;8.80;92701.00;;;;7397011;19;20129;-75
2022/11/21 13:04:59;;;;;;;4.00;1.25;;;7.60;99.90;8.10;92688.00;;;;7397474;19;20133;-73
2022/11/21 13:07:30;;;;;;;7.43;1.23;;;7.40;99.90;8.20;92671.00;;;;7395781;19;20157;-75
2022/11/21 13:10:11;;;;;;;4.05;1.38;;;7.40;99.90;8.70;92658.00;;;;7395054;19;20184;-75
2022/11/21 13:12:58;;;;;;;3.10;1.60;;;7.30;99.90;9.80;92665.00;;;;7394771;19;20599;-74
2022/11/21 13:16:00;;;;;;;7.03;1.73;;;7.70;99.90;9.50;92666.00;;;;7393862;19;20152;-75
2022/11/21 13:18:48;;;;;;;5.05;1.60;;;8.10;99.90;10.30;92661.00;;;;7395837;19;20125;-75
2022/11/21 13:21:49;;;;;;;5.25;1.45;;;8.20;99.90;8.90;92667.00;;;;7403826;19;20153;-75